createdAt,value
2018-08-07T00:00:09.856Z,28.60
2018-08-07T00:02:38.717Z,28.50
2018-08-07T00:05:07.632Z,28.50
2018-08-07T00:07:36.324Z,28.50
2018-08-07T00:10:06.373Z,28.50
2018-08-07T00:12:35.048Z,28.50
2018-08-07T00:15:04.775Z,28.40
2018-08-07T00:17:33.630Z,28.50
2018-08-07T00:20:02.480Z,28.40
2018-08-07T00:22:31.300Z,28.40
2018-08-07T00:25:00.311Z,28.40
2018-08-07T00:27:29.036Z,28.40
2018-08-07T00:29:57.915Z,28.40
2018-08-07T00:32:26.656Z,28.40
2018-08-07T00:34:55.064Z,28.30
2018-08-07T00:37:23.646Z,28.30
2018-08-07T00:39:52.314Z,28.30
2018-08-07T00:42:20.786Z,28.30
2018-08-07T00:44:49.710Z,28.30
2018-08-07T00:47:18.606Z,28.30
2018-08-07T00:49:47.450Z,28.20
2018-08-07T00:52:15.918Z,28.20
2018-08-07T00:54:44.874Z,28.20
2018-08-07T00:57:13.632Z,28.10
2018-08-07T00:59:42.368Z,28.10
2018-08-07T01:02:11.156Z,28.10
2018-08-07T01:04:39.652Z,28.10
2018-08-07T01:07:08.539Z,28.10
2018-08-07T01:09:37.327Z,28.00
2018-08-07T01:12:06.252Z,28.00
2018-08-07T01:14:34.652Z,28.00
2018-08-07T01:17:02.993Z,28.00
2018-08-07T01:19:31.911Z,27.90
2018-08-07T01:24:30.569Z,27.90
2018-08-07T01:26:58.948Z,27.90
2018-08-07T01:29:29.782Z,27.80
2018-08-07T01:31:58.180Z,27.80
2018-08-07T01:34:28.324Z,27.80
2018-08-07T01:36:57.077Z,27.80
2018-08-07T01:39:25.712Z,27.80
2018-08-07T01:41:54.408Z,27.70
2018-08-07T01:44:23.245Z,27.70
2018-08-07T01:46:52.042Z,27.70
2018-08-07T01:49:20.749Z,27.60
2018-08-07T01:51:49.602Z,27.60
2018-08-07T01:54:18.159Z,27.60
2018-08-07T01:56:46.985Z,27.60
2018-08-07T01:59:15.788Z,27.60
2018-08-07T02:01:44.515Z,27.60
2018-08-07T02:04:13.216Z,27.50
2018-08-07T02:09:10.161Z,27.50
2018-08-07T02:11:38.939Z,27.50
2018-08-07T02:14:07.921Z,27.40
2018-08-07T02:16:36.473Z,27.30
2018-08-07T02:19:05.061Z,27.30
2018-08-07T02:21:33.427Z,27.40
2018-08-07T02:24:01.953Z,27.40
2018-08-07T02:26:30.848Z,27.40
2018-08-07T02:28:59.517Z,27.30
2018-08-07T02:31:28.352Z,27.30
2018-08-07T02:33:57.201Z,27.30
2018-08-07T02:36:25.909Z,27.20
2018-08-07T02:38:54.612Z,27.20
2018-08-07T02:41:23.467Z,27.20
2018-08-07T02:43:52.158Z,27.10
2018-08-07T02:46:20.935Z,27.10
2018-08-07T02:48:49.667Z,27.10
2018-08-07T02:51:17.960Z,27.10
2018-08-07T02:53:46.307Z,27.10
2018-08-07T02:56:14.868Z,27.10
2018-08-07T02:58:43.565Z,27.10
2018-08-07T03:01:12.483Z,27.10
2018-08-07T03:03:41.480Z,27.10
2018-08-07T03:06:09.920Z,27.00
2018-08-07T03:08:38.320Z,27.10
2018-08-07T03:11:08.434Z,27.00
2018-08-07T03:13:36.784Z,27.00
2018-08-07T03:16:05.868Z,27.00
2018-08-07T03:18:34.323Z,27.00
2018-08-07T03:21:03.221Z,26.90
2018-08-07T03:23:31.597Z,26.90
2018-08-07T03:26:00.498Z,26.80
2018-08-07T03:28:29.208Z,26.90
2018-08-07T03:30:57.848Z,26.90
2018-08-07T03:33:26.764Z,26.80
2018-08-07T03:35:55.366Z,26.80
2018-08-07T03:38:23.818Z,26.90
2018-08-07T03:40:52.522Z,26.90
2018-08-07T03:43:21.044Z,26.80
2018-08-07T03:45:49.336Z,26.80
2018-08-07T03:48:18.088Z,26.80
2018-08-07T03:50:46.456Z,26.80
2018-08-07T03:53:14.935Z,26.70
2018-08-07T03:55:43.505Z,26.70
2018-08-07T03:58:11.909Z,26.70
2018-08-07T04:00:45.715Z,26.70
2018-08-07T04:03:14.143Z,26.60
2018-08-07T04:05:42.581Z,26.60
2018-08-07T04:08:10.948Z,26.60
2018-08-07T04:10:39.660Z,26.60
2018-08-07T04:13:08.441Z,26.60
2018-08-07T04:15:37.161Z,26.60
2018-08-07T04:18:05.583Z,26.60
2018-08-07T04:20:34.007Z,26.60
2018-08-07T04:23:02.762Z,26.60
2018-08-07T04:25:31.712Z,26.50
2018-08-07T04:28:00.469Z,26.50
2018-08-07T04:30:29.035Z,26.50
2018-08-07T04:32:57.508Z,26.50
2018-08-07T04:35:25.967Z,26.40
2018-08-07T04:37:54.355Z,26.40
2018-08-07T04:40:23.272Z,26.40
2018-08-07T04:42:51.898Z,26.40
2018-08-07T04:45:20.631Z,26.40
2018-08-07T04:47:49.052Z,26.40
2018-08-07T04:50:17.871Z,26.40
2018-08-07T04:52:46.856Z,26.40
2018-08-07T04:55:15.732Z,26.40
2018-08-07T04:57:44.554Z,26.40
2018-08-07T05:00:15.496Z,26.40
2018-08-07T05:02:44.935Z,26.40
2018-08-07T05:05:13.727Z,26.30
2018-08-07T05:07:42.486Z,26.40
2018-08-07T05:10:13.300Z,26.30
2018-08-07T05:12:42.761Z,26.30
2018-08-07T05:15:12.095Z,26.30
2018-08-07T05:17:42.022Z,26.30
2018-08-07T05:20:10.623Z,26.30
2018-08-07T05:22:39.705Z,26.30
2018-08-07T05:25:09.630Z,26.20
2018-08-07T05:27:38.252Z,26.20
2018-08-07T05:30:08.336Z,26.30
2018-08-07T05:32:36.859Z,26.20
2018-08-07T05:35:05.596Z,26.30
2018-08-07T05:37:34.185Z,26.20
2018-08-07T05:40:03.053Z,26.30
2018-08-07T05:42:31.916Z,26.30
2018-08-07T05:45:00.256Z,26.30
2018-08-07T05:47:28.709Z,26.30
2018-08-07T05:49:57.059Z,26.40
2018-08-07T05:52:25.680Z,26.30
2018-08-07T05:54:54.185Z,26.40
2018-08-07T05:57:22.571Z,26.40
2018-08-07T05:59:51.485Z,26.50
2018-08-07T06:02:20.433Z,26.40
2018-08-07T06:04:48.902Z,26.50
2018-08-07T06:07:17.290Z,26.50
2018-08-07T06:09:46.059Z,26.50
2018-08-07T06:12:14.860Z,26.50
2018-08-07T06:14:48.856Z,26.50
2018-08-07T06:17:17.439Z,26.60
2018-08-07T06:19:46.121Z,26.60
2018-08-07T06:22:14.672Z,26.60
2018-08-07T06:24:43.259Z,26.60
2018-08-07T06:27:11.640Z,26.60
2018-08-07T06:29:39.999Z,26.60
2018-08-07T06:32:08.658Z,26.60
2018-08-07T06:34:37.093Z,26.70
2018-08-07T06:37:06.147Z,26.70
2018-08-07T06:39:34.982Z,26.70
2018-08-07T06:42:03.480Z,26.70
2018-08-07T06:44:32.466Z,26.80
2018-08-07T06:47:00.991Z,26.80
2018-08-07T06:49:31.124Z,26.80
2018-08-07T06:51:59.922Z,26.80
2018-08-07T06:54:30.163Z,26.80
2018-08-07T06:56:59.148Z,26.90
2018-08-07T06:59:27.676Z,26.90
2018-08-07T07:01:56.152Z,26.90
2018-08-07T07:04:25.037Z,26.90
2018-08-07T07:06:53.527Z,27.00
2018-08-07T07:09:22.326Z,27.00
2018-08-07T07:11:51.300Z,27.00
2018-08-07T07:14:32.233Z,27.00
2018-08-07T07:19:30.864Z,27.10
2018-08-07T07:21:59.679Z,27.10
2018-08-07T07:24:28.068Z,27.10
2018-08-07T07:26:56.500Z,27.10
2018-08-07T07:29:24.983Z,27.10
2018-08-07T07:34:21.997Z,27.20
2018-08-07T07:36:50.449Z,27.20
2018-08-07T07:39:18.858Z,27.20
2018-08-07T07:41:47.629Z,27.30
2018-08-07T07:44:16.356Z,27.30
2018-08-07T07:46:44.922Z,27.30
2018-08-07T07:49:13.345Z,27.30
2018-08-07T07:51:41.800Z,27.40
2018-08-07T07:54:10.256Z,27.40
2018-08-07T07:56:39.288Z,27.40
2018-08-07T07:59:08.035Z,27.40
2018-08-07T08:01:36.505Z,27.50
2018-08-07T08:04:05.030Z,27.50
2018-08-07T08:06:33.548Z,27.50
2018-08-07T08:09:02.019Z,27.60
2018-08-07T08:11:30.609Z,27.60
2018-08-07T08:13:59.111Z,27.60
2018-08-07T08:18:56.147Z,27.70
2018-08-07T08:21:24.715Z,27.70
2018-08-07T08:23:53.009Z,27.70
2018-08-07T08:26:21.852Z,27.80
2018-08-07T08:28:50.430Z,27.80
2018-08-07T08:31:19.124Z,27.80
2018-08-07T08:36:16.029Z,27.90
2018-08-07T08:38:45.024Z,27.90
2018-08-07T08:41:13.839Z,28.00
2018-08-07T08:43:42.506Z,28.00
2018-08-07T08:46:10.879Z,28.10
2018-08-07T08:48:39.390Z,28.10
2018-08-07T08:51:07.912Z,28.10
2018-08-07T08:53:36.572Z,28.10
2018-08-07T08:56:05.263Z,28.20
2018-08-07T08:58:34.225Z,28.20
2018-08-07T09:01:03.171Z,28.20
2018-08-07T09:03:31.561Z,28.30
2018-08-07T09:06:00.390Z,28.30
2018-08-07T09:08:29.279Z,28.40
2018-08-07T09:10:58.177Z,28.40
2018-08-07T09:13:26.765Z,28.40
2018-08-07T09:15:55.758Z,28.50
2018-08-07T09:18:24.176Z,28.40
2018-08-07T09:20:52.671Z,28.50
2018-08-07T09:23:21.055Z,28.50
2018-08-07T09:25:49.983Z,28.60
2018-08-07T09:28:18.786Z,28.70
2018-08-07T09:30:47.425Z,28.70
2018-08-07T09:33:15.958Z,28.70
2018-08-07T09:35:44.415Z,28.70
2018-08-07T09:38:12.784Z,28.80
2018-08-07T09:40:41.617Z,28.80
2018-08-07T09:43:10.101Z,28.80
2018-08-07T09:45:38.567Z,28.90
2018-08-07T09:48:12.402Z,28.90
2018-08-07T09:50:41.031Z,29.00
2018-08-07T09:53:09.628Z,29.10
2018-08-07T09:55:38.311Z,29.10
2018-08-07T10:00:40.949Z,29.20
2018-08-07T10:03:11.282Z,29.20
2018-08-07T10:05:39.992Z,29.30
2018-08-07T10:08:08.771Z,29.40
2018-08-07T10:10:37.778Z,29.40
2018-08-07T10:13:06.589Z,29.40
2018-08-07T10:15:38.161Z,29.50
2018-08-07T10:18:06.847Z,29.50
2018-08-07T10:20:35.221Z,29.60
2018-08-07T10:23:04.011Z,29.60
2018-08-07T10:25:32.419Z,29.70
2018-08-07T10:28:00.805Z,29.70
2018-08-07T10:30:29.744Z,29.70
2018-08-07T10:32:58.515Z,29.80
2018-08-07T10:35:27.398Z,29.80
2018-08-07T10:37:55.885Z,29.90
2018-08-07T10:40:26.822Z,29.90
2018-08-07T10:42:55.409Z,30.00
2018-08-07T10:45:25.396Z,30.10
2018-08-07T10:47:54.048Z,30.10
2018-08-07T10:50:26.056Z,30.20
2018-08-07T10:52:55.084Z,30.30
2018-08-07T10:55:24.580Z,30.40
2018-08-07T10:57:54.575Z,30.40
2018-08-07T11:00:26.419Z,30.40
2018-08-07T11:02:55.408Z,30.40
2018-08-07T11:05:24.629Z,30.50
2018-08-07T11:07:53.431Z,30.60
2018-08-07T11:10:22.665Z,30.60
2018-08-07T11:12:51.561Z,30.70
2018-08-07T11:15:50.241Z,30.70
2018-08-07T11:18:18.739Z,30.80
2018-08-07T11:20:47.193Z,30.90
2018-08-07T11:23:15.673Z,30.90
2018-08-07T11:25:43.988Z,31.00
2018-08-07T11:28:12.776Z,31.10
2018-08-07T11:30:41.257Z,31.10
2018-08-07T11:33:10.060Z,31.10
2018-08-07T11:35:38.917Z,31.20
2018-08-07T11:38:07.722Z,31.20
2018-08-07T11:40:36.642Z,31.30
2018-08-07T11:43:05.323Z,31.40
2018-08-07T11:45:33.891Z,31.40
2018-08-07T11:48:02.475Z,31.50
2018-08-07T11:50:32.395Z,31.50
2018-08-07T11:53:01.107Z,31.60
2018-08-07T11:55:29.595Z,31.50
2018-08-07T11:57:58.455Z,31.70
2018-08-07T12:00:32.521Z,31.70
2018-08-07T12:03:01.100Z,31.80
2018-08-07T12:05:29.639Z,31.90
2018-08-07T12:07:58.107Z,32.00
2018-08-07T12:10:27.388Z,32.10
2018-08-07T12:12:56.188Z,32.10
2018-08-07T12:18:33.653Z,32.20
2018-08-07T12:21:02.361Z,32.20
2018-08-07T12:25:59.216Z,32.30
2018-08-07T12:28:28.043Z,32.40
2018-08-07T12:30:56.876Z,32.50
2018-08-07T12:33:25.436Z,32.60
2018-08-07T12:35:54.364Z,32.70
2018-08-07T12:38:22.904Z,32.70
2018-08-07T12:40:51.492Z,32.80
2018-08-07T12:43:20.204Z,32.90
2018-08-07T12:45:49.101Z,32.90
2018-08-07T12:48:17.579Z,33.00
2018-08-07T12:50:46.498Z,33.20
2018-08-07T12:53:15.619Z,33.30
2018-08-07T12:55:44.180Z,33.30
2018-08-07T12:58:12.606Z,33.40
2018-08-07T13:00:41.442Z,33.50
2018-08-07T13:03:10.136Z,33.50
2018-08-07T13:05:38.940Z,33.50
2018-08-07T13:08:07.507Z,33.50
2018-08-07T13:10:35.971Z,33.50
2018-08-07T13:13:04.876Z,33.50
2018-08-07T13:16:16.695Z,33.60
2018-08-07T13:18:45.130Z,33.60
2018-08-07T13:21:13.737Z,33.50
2018-08-07T13:23:42.230Z,33.50
2018-08-07T13:26:12.046Z,33.40
2018-08-07T13:28:40.803Z,33.40
2018-08-07T13:31:09.564Z,33.40
2018-08-07T13:33:38.421Z,33.40
2018-08-07T13:36:07.046Z,33.30
2018-08-07T13:38:35.629Z,33.30
2018-08-07T13:41:04.112Z,33.20
2018-08-07T13:43:32.605Z,33.30
2018-08-07T13:46:00.995Z,33.40
2018-08-07T13:48:29.536Z,33.50
2018-08-07T13:50:58.390Z,33.60
2018-08-07T13:53:27.308Z,33.70
2018-08-07T13:55:56.212Z,33.80
2018-08-07T13:58:24.975Z,33.70
2018-08-07T14:00:53.351Z,33.80
2018-08-07T14:03:21.979Z,33.90
2018-08-07T14:05:50.452Z,33.90
2018-08-07T14:08:19.021Z,33.90
2018-08-07T14:10:47.404Z,33.90
2018-08-07T14:13:16.211Z,33.90
2018-08-07T14:16:32.841Z,33.90
2018-08-07T14:19:01.675Z,33.90
2018-08-07T14:21:30.600Z,33.90
2018-08-07T14:24:01.681Z,33.90
2018-08-07T14:26:30.236Z,33.90
2018-08-07T14:28:58.978Z,33.90
2018-08-07T14:31:27.589Z,33.90
2018-08-07T14:33:56.140Z,33.90
2018-08-07T14:36:25.084Z,33.90
2018-08-07T14:38:53.857Z,33.90
2018-08-07T14:41:22.257Z,34.00
2018-08-07T14:43:50.877Z,34.00
2018-08-07T14:46:19.718Z,34.10
2018-08-07T14:48:48.660Z,34.10
2018-08-07T14:51:20.256Z,34.20
2018-08-07T14:53:49.112Z,34.30
2018-08-07T14:56:17.873Z,34.30
2018-08-07T14:58:46.613Z,34.40
2018-08-07T15:01:15.016Z,34.30
2018-08-07T15:03:43.713Z,34.40
2018-08-07T15:06:12.187Z,34.30
2018-08-07T15:08:41.008Z,34.20
2018-08-07T15:11:17.108Z,34.10
2018-08-07T15:13:45.599Z,34.10
2018-08-07T15:16:38.809Z,34.00
2018-08-07T15:19:07.585Z,33.90
2018-08-07T15:21:36.521Z,33.90
2018-08-07T15:24:05.190Z,33.80
2018-08-07T15:26:33.757Z,33.70
2018-08-07T15:29:02.669Z,33.60
2018-08-07T15:31:31.072Z,33.50
2018-08-07T15:33:59.447Z,33.50
2018-08-07T15:36:27.888Z,33.40
2018-08-07T15:38:56.785Z,33.30
2018-08-07T15:41:25.781Z,33.30
2018-08-07T15:43:54.820Z,33.20
2018-08-07T15:46:23.180Z,33.20
2018-08-07T15:48:51.687Z,33.20
2018-08-07T15:51:20.215Z,33.20
2018-08-07T15:53:48.972Z,33.10
2018-08-07T15:56:17.815Z,33.00
2018-08-07T15:58:46.536Z,33.00
2018-08-07T16:01:15.071Z,32.90
2018-08-07T16:03:43.613Z,32.90
2018-08-07T16:06:12.493Z,32.90
2018-08-07T16:08:40.967Z,32.90
2018-08-07T16:11:16.167Z,32.80
2018-08-07T16:13:44.599Z,32.80
2018-08-07T16:16:50.045Z,32.80
2018-08-07T16:19:18.417Z,32.80
2018-08-07T16:21:47.276Z,32.80
2018-08-07T16:24:16.687Z,32.80
2018-08-07T16:26:45.571Z,32.90
2018-08-07T16:29:14.918Z,32.90
2018-08-07T16:31:44.093Z,32.80
2018-08-07T16:34:13.762Z,32.90
2018-08-07T16:36:43.621Z,32.90
2018-08-07T16:39:13.119Z,32.90
2018-08-07T16:41:42.505Z,33.00
2018-08-07T16:44:11.899Z,33.00
2018-08-07T16:46:42.191Z,33.00
2018-08-07T16:49:11.487Z,33.10
2018-08-07T16:51:41.485Z,33.10
2018-08-07T16:54:10.770Z,33.10
2018-08-07T16:56:40.622Z,33.10
2018-08-07T16:59:09.855Z,33.10
2018-08-07T17:01:40.640Z,33.10
2018-08-07T17:04:10.999Z,33.10
2018-08-07T17:06:41.405Z,33.10
2018-08-07T17:09:12.676Z,33.10
2018-08-07T17:11:42.132Z,33.10
2018-08-07T17:14:15.842Z,33.10
2018-08-07T17:17:04.721Z,33.00
2018-08-07T17:19:35.352Z,32.80
2018-08-07T17:22:04.586Z,32.60
2018-08-07T17:24:35.323Z,32.50
2018-08-07T17:27:04.715Z,32.30
2018-08-07T17:29:34.631Z,32.10
2018-08-07T17:32:04.492Z,32.00
2018-08-07T17:34:34.675Z,31.80
2018-08-07T17:37:04.015Z,31.70
2018-08-07T17:39:34.609Z,31.60
2018-08-07T17:42:04.731Z,31.60
2018-08-07T17:44:35.544Z,31.60
2018-08-07T17:47:05.167Z,31.60
2018-08-07T17:49:35.503Z,31.50
2018-08-07T17:52:04.621Z,31.40
2018-08-07T17:54:35.113Z,31.40
2018-08-07T17:57:04.232Z,31.40
2018-08-07T17:59:34.155Z,31.40
2018-08-07T18:02:03.090Z,31.40
2018-08-07T18:04:33.488Z,31.30
2018-08-07T18:07:02.468Z,31.20
2018-08-07T18:09:32.665Z,31.20
2018-08-07T18:12:01.825Z,31.20
2018-08-07T18:14:56.261Z,31.20
2018-08-07T18:17:25.223Z,31.20
2018-08-07T18:22:22.513Z,31.10
2018-08-07T18:24:51.916Z,31.00
2018-08-07T18:27:21.145Z,30.90
2018-08-07T18:29:49.891Z,30.90
2018-08-07T18:32:18.999Z,30.90
2018-08-07T18:34:47.795Z,30.90
2018-08-07T18:37:17.820Z,30.80
2018-08-07T18:39:46.697Z,30.80
2018-08-07T18:42:15.851Z,30.70
2018-08-07T18:44:45.274Z,30.70
2018-08-07T18:47:15.152Z,30.70
2018-08-07T18:49:44.447Z,30.60
2018-08-07T18:52:13.692Z,30.50
2018-08-07T18:54:42.876Z,30.50
2018-08-07T18:57:12.379Z,30.50
2018-08-07T18:59:42.439Z,30.40
2018-08-07T19:02:11.806Z,30.30
2018-08-07T19:04:41.167Z,30.30
2018-08-07T19:07:10.903Z,30.20
2018-08-07T19:09:40.442Z,30.20
2018-08-07T19:12:10.603Z,30.20
2018-08-07T19:15:17.968Z,30.20
2018-08-07T19:17:47.881Z,30.20
2018-08-07T19:20:19.588Z,30.20
2018-08-07T19:22:49.622Z,30.10
2018-08-07T19:25:19.426Z,30.00
2018-08-07T19:27:49.014Z,30.00
2018-08-07T19:30:21.218Z,30.00
2018-08-07T19:32:50.591Z,30.00
2018-08-07T19:35:20.885Z,29.90
2018-08-07T19:37:50.749Z,29.90
2018-08-07T19:40:22.462Z,29.90
2018-08-07T19:42:52.512Z,29.90
2018-08-07T19:45:22.791Z,29.70
2018-08-07T19:47:52.088Z,29.70
2018-08-07T19:50:22.734Z,29.70
2018-08-07T19:52:53.061Z,29.70
2018-08-07T19:55:23.395Z,29.70
2018-08-07T19:57:52.686Z,29.70
2018-08-07T20:00:25.332Z,29.60
2018-08-07T20:02:55.092Z,29.60
2018-08-07T20:05:25.419Z,29.60
2018-08-07T20:07:55.975Z,29.60
2018-08-07T20:10:25.307Z,29.50
2018-08-07T20:12:55.039Z,29.50
2018-08-07T20:16:08.239Z,29.50
2018-08-07T20:18:38.412Z,29.40
2018-08-07T20:21:08.594Z,29.40
2018-08-07T20:23:37.955Z,29.30
2018-08-07T20:29:30.037Z,29.20
2018-08-07T20:32:00.036Z,29.20
2018-08-07T20:34:30.289Z,29.20
2018-08-07T20:37:00.292Z,29.20
2018-08-07T20:39:29.440Z,29.10
2018-08-07T20:41:58.794Z,29.10
2018-08-07T20:44:29.001Z,29.00
2018-08-07T20:46:59.064Z,29.00
2018-08-07T20:49:28.311Z,28.90
2018-08-07T20:51:58.209Z,28.90
2018-08-07T20:54:27.531Z,28.90
2018-08-07T20:56:56.751Z,28.80
2018-08-07T20:59:26.243Z,28.80
2018-08-07T21:01:55.456Z,28.80
2018-08-07T21:04:24.561Z,28.80
2018-08-07T21:06:53.679Z,28.70
2018-08-07T21:09:22.807Z,28.70
2018-08-07T21:11:51.820Z,28.70
2018-08-07T21:14:38.478Z,28.60
2018-08-07T21:17:27.403Z,28.60
2018-08-07T21:19:56.121Z,28.50
2018-08-07T21:22:25.081Z,28.50
2018-08-07T21:24:53.636Z,28.50
2018-08-07T21:27:22.231Z,28.50
2018-08-07T21:29:50.776Z,28.50
2018-08-07T21:32:19.655Z,28.40
2018-08-07T21:34:48.122Z,28.40
2018-08-07T21:37:17.027Z,28.40
2018-08-07T21:39:45.559Z,28.30
2018-08-07T21:42:14.536Z,28.30
2018-08-07T21:44:43.237Z,28.30
2018-08-07T21:47:11.867Z,28.30
2018-08-07T21:49:40.865Z,28.20
2018-08-07T21:52:09.776Z,28.20
2018-08-07T21:54:38.769Z,28.10
2018-08-07T21:57:07.416Z,28.10
2018-08-07T21:59:37.224Z,28.10
2018-08-07T22:02:06.391Z,28.10
2018-08-07T22:04:36.305Z,28.00
2018-08-07T22:07:04.923Z,28.00
2018-08-07T22:09:34.942Z,27.90
2018-08-07T22:12:03.482Z,27.90
2018-08-07T22:14:33.625Z,27.90
2018-08-07T22:17:02.180Z,27.80
2018-08-07T22:19:30.658Z,27.80
2018-08-07T22:21:59.360Z,27.80
2018-08-07T22:24:27.757Z,27.70
2018-08-07T22:26:56.247Z,27.70
2018-08-07T22:29:24.691Z,27.70
2018-08-07T22:31:53.104Z,27.70
2018-08-07T22:34:21.969Z,27.70
2018-08-07T22:36:50.415Z,27.70
2018-08-07T22:39:19.116Z,27.60
2018-08-07T22:41:48.156Z,27.60
2018-08-07T22:44:16.691Z,27.60
2018-08-07T22:46:45.166Z,27.50
2018-08-07T22:49:13.684Z,27.50
2018-08-07T22:51:42.480Z,27.50
2018-08-07T22:54:11.284Z,27.40
2018-08-07T22:56:39.708Z,27.40
2018-08-07T22:59:08.325Z,27.30
2018-08-07T23:01:36.783Z,27.30
2018-08-07T23:04:05.528Z,27.30
2018-08-07T23:06:33.908Z,27.30
2018-08-07T23:09:02.486Z,27.30
2018-08-07T23:11:31.372Z,27.20
2018-08-07T23:13:59.752Z,27.20
2018-08-07T23:16:28.232Z,27.20
2018-08-07T23:18:56.710Z,27.10
2018-08-07T23:21:25.415Z,27.00
2018-08-07T23:23:54.096Z,27.00
2018-08-07T23:26:22.856Z,27.00
2018-08-07T23:28:51.188Z,27.00
2018-08-07T23:31:19.771Z,27.00
2018-08-07T23:33:48.259Z,27.00
2018-08-07T23:36:16.870Z,27.00
2018-08-07T23:38:45.215Z,27.00
2018-08-07T23:41:13.674Z,27.00
2018-08-07T23:43:42.332Z,27.00
2018-08-07T23:46:10.700Z,27.00
2018-08-07T23:48:38.984Z,26.90
2018-08-07T23:51:07.562Z,26.90
2018-08-07T23:53:36.347Z,26.80
2018-08-07T23:56:05.304Z,26.80
2018-08-07T23:58:33.971Z,26.80
